Time;durP1;ratioP1;P1;durP2;ratioP2;P2;SDS_P1;SDS_P2;PMS_P1;PMS_P2;Temp;Humidity;BMP_temperature;BMP_pressure;BME280_temperature;BME280_humidity;BME280_pressure;Samples;Min_cycle;Max_cycle;Signal;HPM_P1;HPM_P2
2022/01/14 00:00:38;;;;;;;2.45;1.90;;;16.50;44.60;;;;;;5023711;28;44987;-83
2022/01/14 00:03:08;;;;;;;1.85;1.60;;;16.70;45.60;;;;;;5025158;28;45615;-83
2022/01/14 00:05:41;;;;;;;3.38;1.80;;;17.00;44.40;;;;;;5025635;28;45139;-82
2022/01/14 00:08:21;;;;;;;2.00;1.80;;;16.60;43.10;;;;;;5024736;28;45292;-83
2022/01/14 00:10:50;;;;;;;3.60;2.08;;;16.60;44.70;;;;;;5023368;28;45207;-82
2022/01/14 00:13:42;;;;;;;2.58;1.88;;;16.50;44.20;;;;;;5005955;28;45522;-84
2022/01/14 00:16:12;;;;;;;2.15;1.92;;;16.80;43.70;;;;;;5025026;28;45259;-84
2022/01/14 00:18:41;;;;;;;2.50;1.90;;;16.50;42.50;;;;;;4988241;28;45274;-83
2022/01/14 00:21:11;;;;;;;2.75;2.28;;;16.60;45.00;;;;;;5019011;28;44845;-83
2022/01/14 00:24:06;;;;;;;2.00;1.73;;;16.50;42.20;;;;;;5021514;28;45202;-82
2022/01/14 00:32:18;;;;;;;3.40;2.30;;;16.50;45.10;;;;;;5004394;28;45261;-82
2022/01/14 00:34:46;;;;;;;2.53;1.92;;;15.70;41.50;;;;;;5023876;28;46757;-83
2022/01/14 00:37:20;;;;;;;2.33;2.05;;;16.50;44.50;;;;;;5023863;28;45247;-83
2022/01/14 00:39:56;;;;;;;4.45;2.15;;;16.50;43.70;;;;;;5023693;28;45055;-83
2022/01/14 00:42:24;;;;;;;2.97;2.20;;;16.80;44.30;;;;;;5023570;28;45287;-83
2022/01/14 00:44:52;;;;;;;3.67;2.40;;;16.40;42.90;;;;;;5023468;28;45893;-84
2022/01/14 00:47:23;;;;;;;3.75;2.63;;;16.60;46.70;;;;;;5023476;28;44932;-84
2022/01/14 00:49:51;;;;;;;2.50;2.22;;;16.70;44.60;;;;;;5005644;28;45298;-83
2022/01/14 00:52:19;;;;;;;3.78;2.35;;;18.50;45.40;;;;;;5023722;28;45289;-82
2022/01/14 00:54:49;;;;;;;3.92;2.90;;;17.20;42.50;;;;;;5023291;28;47244;-82
2022/01/14 00:57:28;;;;;;;3.10;2.25;;;16.60;42.10;;;;;;5005871;28;45229;-81
2022/01/14 01:00:08;;;;;;;3.95;2.88;;;16.40;41.80;;;;;;5021838;28;45241;-82
2022/01/14 01:02:38;;;;;;;3.70;2.50;;;16.50;41.80;;;;;;5021441;28;45265;-82
2022/01/14 01:05:13;;;;;;;3.55;2.47;;;16.40;42.20;;;;;;5018118;28;47801;-82
2022/01/14 01:07:41;;;;;;;3.67;2.33;;;14.70;39.50;;;;;;4993893;28;44745;-82
2022/01/14 01:10:17;;;;;;;2.97;2.30;;;16.80;45.40;;;;;;5002511;28;45344;-82
2022/01/14 01:12:52;;;;;;;3.03;2.42;;;16.50;42.20;;;;;;5021982;28;44807;-82
2022/01/14 01:15:21;;;;;;;3.42;2.38;;;16.90;47.20;;;;;;5015312;28;47401;-81
2022/01/14 01:17:49;;;;;;;3.13;2.53;;;16.60;42.50;;;;;;5002992;28;45201;-81
2022/01/14 01:20:18;;;;;;;2.72;2.15;;;16.50;41.20;;;;;;5018546;28;45159;-81
2022/01/14 01:22:47;;;;;;;4.75;2.20;;;16.50;41.50;;;;;;5019985;28;45504;-83
2022/01/14 01:25:22;;;;;;;3.65;2.40;;;16.50;41.90;;;;;;5023173;28;46698;-82
2022/01/14 01:28:07;;;;;;;3.65;2.42;;;16.40;41.70;;;;;;5023443;28;45179;-83
2022/01/14 01:33:25;;;;;;;3.30;2.50;;;16.50;43.00;;;;;;5005781;28;45364;-82
2022/01/14 01:35:53;;;;;;;4.25;2.47;;;16.50;43.60;;;;;;5021917;28;45350;-82
2022/01/14 01:38:20;;;;;;;3.55;2.25;;;16.40;42.60;;;;;;5001670;28;45238;-82
2022/01/14 01:40:51;;;;;;;4.00;2.80;;;16.50;42.80;;;;;;5021965;28;45191;-82
2022/01/14 01:43:24;;;;;;;3.05;2.55;;;16.40;41.80;;;;;;5019580;28;45139;-81
2022/01/14 01:45:56;;;;;;;3.47;2.42;;;16.40;43.90;;;;;;5019701;28;45249;-81
2022/01/14 01:48:23;;;;;;;3.38;2.33;;;16.40;42.30;;;;;;5019405;28;45357;-80
2022/01/14 01:50:52;;;;;;;3.55;2.58;;;16.40;41.30;;;;;;5017942;28;44812;-80
2022/01/14 01:53:21;;;;;;;4.18;2.90;;;16.50;41.10;;;;;;5017694;28;45489;-81
2022/01/14 01:55:53;;;;;;;4.93;2.60;;;16.50;42.80;;;;;;5017477;28;47238;-80
2022/01/14 01:58:20;;;;;;;4.40;2.72;;;16.60;42.50;;;;;;5015920;28;46162;-80
2022/01/14 02:00:49;;;;;;;5.15;2.60;;;16.60;41.10;;;;;;5016707;28;45277;-80
2022/01/14 02:03:18;;;;;;;3.67;2.67;;;16.40;41.40;;;;;;5016528;28;45274;-80
2022/01/14 02:05:46;;;;;;;3.85;2.90;;;16.40;40.40;;;;;;5016153;28;46231;-80
2022/01/14 02:08:15;;;;;;;3.35;2.70;;;16.00;40.30;;;;;;5015934;28;46252;-80
2022/01/14 02:10:42;;;;;;;4.55;3.13;;;16.40;40.30;;;;;;5016310;28;45233;-81
2022/01/14 02:13:13;;;;;;;4.20;2.85;;;16.40;40.70;;;;;;5015380;28;45487;-80
2022/01/14 02:15:49;;;;;;;5.97;2.88;;;16.40;40.40;;;;;;5014974;28;48248;-80
2022/01/14 02:18:33;;;;;;;4.35;3.00;;;16.40;40.40;;;;;;5015939;28;46725;-80
2022/01/14 02:23:53;;;;;;;5.85;3.35;;;16.40;40.20;;;;;;5016525;28;45186;-80
2022/01/14 02:26:22;;;;;;;4.10;2.70;;;16.40;40.90;;;;;;5010022;28;48093;-80
2022/01/14 02:28:51;;;;;;;5.95;3.10;;;16.40;40.30;;;;;;5015007;28;45424;-80
2022/01/14 02:31:19;;;;;;;4.80;2.88;;;16.40;39.90;;;;;;5014502;28;44846;-80
2022/01/14 02:33:46;;;;;;;4.22;2.65;;;16.40;40.10;;;;;;5015999;28;45230;-81
2022/01/14 02:36:15;;;;;;;5.28;2.95;;;16.40;40.10;;;;;;5016222;28;47709;-79
2022/01/14 02:38:42;;;;;;;5.40;2.78;;;16.40;40.90;;;;;;5005580;28;46110;-79
2022/01/14 02:41:09;;;;;;;4.45;2.78;;;16.50;41.50;;;;;;5005593;28;45235;-79
2022/01/14 02:43:36;;;;;;;3.88;2.53;;;16.50;42.00;;;;;;5004690;28;45312;-79
2022/01/14 02:46:14;;;;;;;2.55;2.00;;;16.50;42.30;;;;;;5015941;28;47103;-81
2022/01/14 02:48:41;;;;;;;5.20;2.92;;;16.50;41.90;;;;;;5020967;28;45262;-80
2022/01/14 02:51:11;;;;;;;3.15;2.75;;;16.90;42.00;;;;;;5019748;28;45206;-80
2022/01/14 02:53:56;;;;;;;4.65;2.90;;;16.50;41.40;;;;;;5020219;28;45471;-80
2022/01/14 02:56:31;;;;;;;3.63;2.97;;;16.40;41.30;;;;;;5012896;28;48436;-81
2022/01/14 02:59:00;;;;;;;3.95;2.90;;;16.40;41.10;;;;;;5019731;28;46026;-81
2022/01/14 03:01:28;;;;;;;4.72;2.80;;;16.50;41.20;;;;;;5015466;28;44809;-80
2022/01/14 03:03:57;;;;;;;5.05;3.10;;;16.40;40.50;;;;;;5019332;28;45241;-80
2022/01/14 03:06:27;;;;;;;3.80;2.80;;;16.40;40.20;;;;;;5018294;28;46976;-80
2022/01/14 03:08:56;;;;;;;4.75;3.10;;;16.40;40.20;;;;;;5018637;28;45316;-80
2022/01/14 03:11:32;;;;;;;4.10;2.70;;;16.40;40.60;;;;;;5017041;28;45365;-80
2022/01/14 03:14:00;;;;;;;5.25;3.45;;;16.40;40.40;;;;;;5018480;28;45302;-80
2022/01/14 03:16:28;;;;;;;4.57;3.50;;;16.40;39.60;;;;;;5000844;28;47708;-81
2022/01/14 03:19:05;;;;;;;4.35;3.03;;;16.40;39.50;;;;;;5017632;28;46299;-80
2022/01/14 03:21:39;;;;;;;5.80;3.13;;;16.40;39.50;;;;;;5017300;28;45183;-81
2022/01/14 03:24:18;;;;;;;5.25;3.38;;;15.50;39.00;;;;;;5017349;28;45161;-80
2022/01/14 03:26:46;;;;;;;6.15;3.67;;;16.40;39.20;;;;;;5019007;28;46901;-80
2022/01/14 03:29:14;;;;;;;5.60;3.55;;;16.50;39.60;;;;;;5017289;28;45310;-79
2022/01/14 03:31:43;;;;;;;4.65;2.92;;;16.40;39.30;;;;;;5015639;28;45366;-79
2022/01/14 03:34:10;;;;;;;6.88;3.58;;;16.50;39.20;;;;;;5017033;28;45479;-80
2022/01/14 03:36:37;;;;;;;4.90;3.38;;;16.40;39.20;;;;;;5016543;28;47831;-81
2022/01/14 03:39:05;;;;;;;4.78;3.47;;;16.40;39.40;;;;;;5022785;28;46322;-81
2022/01/14 03:41:35;;;;;;;5.85;3.67;;;16.40;40.60;;;;;;5025516;28;45320;-79
2022/01/14 03:44:02;;;;;;;6.18;3.88;;;16.40;39.70;;;;;;5017694;28;45414;-80
2022/01/14 03:46:31;;;;;;;5.65;3.60;;;16.30;39.50;;;;;;5016274;28;47653;-80
2022/01/14 03:48:58;;;;;;;5.32;3.63;;;16.40;39.30;;;;;;5017436;28;45351;-80
2022/01/14 03:51:27;;;;;;;5.53;3.72;;;16.40;39.70;;;;;;5015767;28;45237;-80
2022/01/14 03:53:55;;;;;;;5.53;3.78;;;16.40;39.70;;;;;;5012946;28;45517;-80
2022/01/14 03:56:22;;;;;;;5.22;3.47;;;16.40;40.50;;;;;;5015417;28;47279;-80
2022/01/14 03:59:03;;;;;;;5.53;3.33;;;16.40;41.10;;;;;;5014231;28;45364;-80
2022/01/14 04:01:40;;;;;;;6.05;3.78;;;16.40;41.20;;;;;;5016398;28;45234;-80
2022/01/14 04:04:07;;;;;;;7.90;4.55;;;16.40;41.70;;;;;;5018994;28;45159;-80
2022/01/14 04:06:34;;;;;;;6.15;4.32;;;16.40;42.20;;;;;;5014511;28;46912;-80
2022/01/14 04:09:03;;;;;;;8.75;4.60;;;16.40;40.30;;;;;;5010803;28;45191;-80
2022/01/14 04:11:33;;;;;;;7.07;4.38;;;15.00;39.00;;;;;;5017641;28;45298;-80
2022/01/14 04:15:36;;;;;;;7.35;4.78;;;16.40;39.50;;;;;;5020925;28;45174;-82
2022/01/14 04:17:06;;;;;;;5.85;4.05;;;16.40;39.40;;;;;;5023732;28;46023;-83
2022/01/14 04:19:39;;;;;;;8.05;4.10;;;16.40;42.50;;;;;;5023792;28;45082;-84
2022/01/14 04:22:08;;;;;;;7.65;4.75;;;16.50;40.90;;;;;;5024277;28;44882;-83
2022/01/14 04:24:44;;;;;;;6.80;4.90;;;16.60;47.40;;;;;;5007377;28;45022;-82
2022/01/14 04:27:14;;;;;;;6.95;4.45;;;16.20;40.40;;;;;;5023848;28;46739;-82
2022/01/14 04:29:44;;;;;;;8.05;4.70;;;16.40;39.60;;;;;;5004248;28;45451;-81
2022/01/14 04:32:12;;;;;;;8.10;4.78;;;16.50;39.70;;;;;;5021770;28;45164;-81
2022/01/14 04:34:39;;;;;;;10.05;5.07;;;16.50;39.70;;;;;;5021175;28;45150;-81
2022/01/14 04:37:08;;;;;;;7.78;4.88;;;16.30;40.00;;;;;;5020220;28;46572;-81
2022/01/14 04:39:36;;;;;;;6.95;4.65;;;16.30;39.50;;;;;;5019785;28;45297;-81
2022/01/14 04:42:05;;;;;;;8.13;4.93;;;16.30;39.10;;;;;;5020486;28;45295;-82
2022/01/14 04:44:34;;;;;;;7.80;5.03;;;16.30;39.20;;;;;;5021757;28;45091;-81
2022/01/14 04:47:16;;;;;;;8.23;4.72;;;16.30;38.90;;;;;;5017890;28;46998;-81
2022/01/14 04:49:43;;;;;;;9.02;5.20;;;16.30;39.00;;;;;;5003881;28;44749;-82
2022/01/14 04:52:11;;;;;;;7.65;4.90;;;16.40;39.00;;;;;;5019633;28;45307;-81
2022/01/14 04:54:40;;;;;;;6.60;4.80;;;16.20;39.70;;;;;;5017527;28;45535;-80
2022/01/14 04:57:07;;;;;;;7.85;4.65;;;16.40;39.10;;;;;;5014550;28;47359;-80
2022/01/14 04:59:37;;;;;;;7.25;4.65;;;16.40;39.10;;;;;;5012600;28;45300;-80
2022/01/14 05:02:06;;;;;;;8.90;5.18;;;16.40;39.10;;;;;;5007732;28;45265;-80
2022/01/14 05:04:33;;;;;;;9.02;5.18;;;16.40;39.50;;;;;;5013322;28;45312;-80
2022/01/14 05:07:03;;;;;;;8.23;4.78;;;16.40;39.10;;;;;;5012898;28;45849;-80
2022/01/14 05:09:36;;;;;;;7.78;4.70;;;16.40;39.10;;;;;;4996960;28;45262;-80
2022/01/14 05:12:08;;;;;;;7.97;4.78;;;16.30;39.20;;;;;;5012996;28;45380;-79
2022/01/14 05:14:35;;;;;;;5.85;4.30;;;16.40;39.50;;;;;;5012203;28;45191;-80
2022/01/14 05:17:07;;;;;;;5.97;4.28;;;16.30;40.10;;;;;;5207539;22;47138;-79
2022/01/14 05:19:34;;;;;;;6.82;4.32;;;16.40;40.30;;;;;;4990873;28;45264;-79
2022/01/14 05:22:01;;;;;;;8.75;4.50;;;16.40;41.20;;;;;;4997623;28;45282;-79
2022/01/14 05:24:28;;;;;;;8.02;5.00;;;16.40;41.10;;;;;;5011071;28;45184;-79
2022/01/14 05:26:55;;;;;;;8.13;4.78;;;16.40;40.00;;;;;;5013031;28;47685;-81
2022/01/14 05:29:24;;;;;;;7.70;4.97;;;16.40;40.00;;;;;;5001763;28;45110;-80
2022/01/14 05:32:01;;;;;;;7.30;5.03;;;16.40;39.90;;;;;;5011945;28;45161;-80
2022/01/14 05:34:30;;;;;;;7.45;5.20;;;16.40;39.90;;;;;;4995776;28;45569;-79
2022/01/14 05:37:01;;;;;;;7.80;4.75;;;16.30;40.20;;;;;;5014118;28;45868;-82
2022/01/14 05:39:28;;;;;;;8.93;5.10;;;16.30;39.90;;;;;;5009636;28;45322;-82
2022/01/14 05:41:58;;;;;;;6.93;5.07;;;16.30;39.30;;;;;;5009865;28;45258;-82
2022/01/14 05:44:26;;;;;;;7.28;4.55;;;16.40;39.60;;;;;;5014351;28;45534;-81
2022/01/14 05:46:56;;;;;;;7.20;4.78;;;16.30;39.50;;;;;;5018550;28;47077;-81
2022/01/14 05:49:23;;;;;;;8.93;5.38;;;16.40;39.80;;;;;;5022132;28;45432;-80
2022/01/14 05:51:54;;;;;;;8.57;5.10;;;16.30;39.30;;;;;;5018995;28;45384;-81
2022/01/14 05:54:22;;;;;;;8.38;5.50;;;16.30;39.50;;;;;;5012446;28;45525;-80
2022/01/14 05:56:49;;;;;;;7.57;5.07;;;16.30;39.50;;;;;;5014658;28;46756;-81
2022/01/14 05:59:17;;;;;;;9.05;4.95;;;15.90;40.90;;;;;;5011405;28;45431;-81
2022/01/14 06:01:47;;;;;;;8.52;5.28;;;16.30;39.60;;;;;;5023104;28;45466;-81
2022/01/14 06:04:16;;;;;;;8.88;5.75;;;16.30;39.60;;;;;;5009394;28;45312;-80
2022/01/14 06:06:43;;;;;;;6.70;4.65;;;16.30;40.30;;;;;;5013567;28;46569;-80
2022/01/14 06:09:12;;;;;;;8.88;5.30;;;16.30;40.10;;;;;;5017842;28;46186;-80
2022/01/14 06:11:39;;;;;;;7.68;4.63;;;16.30;40.20;;;;;;5012732;28;45255;-79
2022/01/14 06:14:06;;;;;;;8.98;4.97;;;16.30;41.40;;;;;;5010024;28;45236;-79
2022/01/14 06:16:33;;;;;;;7.88;5.07;;;16.30;41.30;;;;;;5013700;28;45595;-81
2022/01/14 06:19:00;;;;;;;9.00;5.70;;;16.30;41.40;;;;;;5011404;28;46843;-79
2022/01/14 06:21:27;;;;;;;8.27;5.22;;;16.30;40.50;;;;;;5003123;28;45347;-79
2022/01/14 06:23:54;;;;;;;8.00;5.43;;;16.30;40.70;;;;;;5001633;28;45268;-79
2022/01/14 06:26:23;;;;;;;10.30;5.57;;;16.30;40.40;;;;;;4996895;28;46361;-79
2022/01/14 06:28:50;;;;;;;7.70;4.93;;;16.30;40.80;;;;;;5013769;28;45511;-80
2022/01/14 06:31:17;;;;;;;39.97;6.28;;;16.10;39.90;;;;;;5008641;28;45402;-76
2022/01/14 06:33:44;;;;;;;17.08;5.93;;;16.30;40.30;;;;;;5008067;28;45245;-77
2022/01/14 06:36:11;;;;;;;15.95;4.53;;;16.30;40.40;;;;;;5001556;28;47291;-77
2022/01/14 06:38:37;;;;;;;7.43;4.88;;;16.30;41.00;;;;;;5008270;28;45264;-77
2022/01/14 06:41:04;;;;;;;9.50;4.85;;;16.30;41.30;;;;;;5004378;28;45336;-78
2022/01/14 06:43:33;;;;;;;10.82;5.50;;;16.20;41.50;;;;;;4998124;28;45370;-78
2022/01/14 06:46:00;;;;;;;9.27;5.28;;;16.20;40.60;;;;;;4992573;28;47691;-78
2022/01/14 06:48:27;;;;;;;10.68;5.50;;;16.20;40.40;;;;;;5010746;28;45271;-80
2022/01/14 06:50:54;;;;;;;9.18;4.78;;;16.20;40.70;;;;;;5009496;28;45461;-79
2022/01/14 06:53:21;;;;;;;7.85;5.15;;;16.20;41.00;;;;;;4997834;28;45280;-78
2022/01/14 06:55:49;;;;;;;7.60;4.53;;;16.20;41.30;;;;;;5003365;28;46803;-79
2022/01/14 06:58:16;;;;;;;8.18;4.95;;;16.20;41.80;;;;;;5019522;28;45257;-79
2022/01/14 07:00:47;;;;;;;8.02;4.95;;;16.20;42.20;;;;;;5008141;28;45237;-79
2022/01/14 07:03:14;;;;;;;8.27;4.80;;;16.30;41.30;;;;;;5011025;28;45142;-80
2022/01/14 07:05:43;;;;;;;9.35;5.07;;;16.30;42.20;;;;;;5012620;28;48522;-79
2022/01/14 07:08:10;;;;;;;7.30;4.82;;;17.30;43.90;;;;;;5011034;28;45313;-79
2022/01/14 07:10:38;;;;;;;7.47;4.57;;;16.30;42.30;;;;;;5008801;28;46210;-81
2022/01/14 07:13:06;;;;;;;8.73;5.05;;;16.30;42.50;;;;;;5016234;28;45172;-80
2022/01/14 07:15:35;;;;;;;7.88;4.60;;;16.30;42.30;;;;;;5018377;28;46249;-81
2022/01/14 07:18:06;;;;;;;9.68;5.05;;;16.40;41.50;;;;;;5022296;28;45396;-82
2022/01/14 07:20:40;;;;;;;9.07;5.35;;;16.30;41.10;;;;;;5012252;28;45330;-80
2022/01/14 07:23:10;;;;;;;9.80;5.18;;;16.30;42.30;;;;;;5020390;28;45149;-82
2022/01/14 07:25:39;;;;;;;7.47;4.40;;;16.30;41.40;;;;;;5018848;28;46568;-80
2022/01/14 07:28:07;;;;;;;8.73;4.32;;;16.40;42.00;;;;;;5021210;28;46166;-82
2022/01/14 07:30:34;;;;;;;7.60;4.60;;;16.40;44.50;;;;;;5021478;28;45158;-82
2022/01/14 07:33:02;;;;;;;9.52;5.53;;;16.40;42.60;;;;;;5021243;28;45173;-82
2022/01/14 07:35:29;;;;;;;9.27;4.63;;;16.40;43.20;;;;;;5020172;28;48238;-80
2022/01/14 07:37:56;;;;;;;8.15;4.80;;;16.40;43.20;;;;;;5016129;28;45344;-78
2022/01/14 07:40:27;;;;;;;9.25;4.88;;;16.40;43.50;;;;;;5007955;28;45383;-80
2022/01/14 07:42:54;;;;;;;7.20;4.65;;;16.40;44.80;;;;;;5018028;28;45385;-81
2022/01/14 07:45:21;;;;;;;9.10;5.15;;;16.40;43.70;;;;;;5016454;28;46364;-81
2022/01/14 07:47:49;;;;;;;8.45;4.57;;;16.40;44.30;;;;;;5015682;28;45344;-80
2022/01/14 07:50:17;;;;;;;7.53;4.43;;;16.40;43.50;;;;;;5015076;28;45256;-85
2022/01/14 07:52:44;;;;;;;7.95;4.65;;;16.60;45.30;;;;;;5017757;28;45202;-81
2022/01/14 07:55:14;;;;;;;7.03;4.35;;;16.40;45.60;;;;;;5011921;28;46420;-81
2022/01/14 07:57:44;;;;;;;9.10;5.47;;;16.00;45.30;;;;;;5017010;28;45194;-82
2022/01/14 08:00:13;;;;;;;9.20;4.75;;;16.40;44.70;;;;;;5019256;28;45211;-80
2022/01/14 08:02:40;;;;;;;8.25;4.78;;;16.40;43.70;;;;;;5010387;28;45574;-80
2022/01/14 08:05:09;;;;;;;7.72;5.20;;;16.30;43.20;;;;;;5003138;28;47866;-80
2022/01/14 08:07:44;;;;;;;8.73;5.22;;;16.30;43.40;;;;;;5016396;28;45323;-81
2022/01/14 08:10:12;;;;;;;7.85;4.88;;;16.20;43.80;;;;;;5013020;28;45229;-79
2022/01/14 08:12:40;;;;;;;7.28;4.93;;;16.20;43.00;;;;;;5010624;28;45672;-79
2022/01/14 08:15:09;;;;;;;8.13;5.20;;;16.20;43.80;;;;;;5016093;28;48209;-79
2022/01/14 08:17:36;;;;;;;8.07;4.15;;;16.20;42.90;;;;;;4999574;28;45217;-78
2022/01/14 08:20:03;;;;;;;6.95;4.97;;;16.20;43.40;;;;;;5009104;28;45241;-78
2022/01/14 08:22:31;;;;;;;7.63;5.25;;;16.20;42.80;;;;;;5010620;28;45532;-78
2022/01/14 08:24:59;;;;;;;7.57;4.90;;;16.20;42.70;;;;;;5005409;28;48438;-78
2022/01/14 08:27:27;;;;;;;6.55;4.65;;;16.30;42.70;;;;;;5008574;28;45322;-78
2022/01/14 08:29:54;;;;;;;6.78;4.68;;;16.20;42.70;;;;;;5011084;28;45415;-78
2022/01/14 08:32:21;;;;;;;9.23;5.43;;;16.30;42.90;;;;;;5007415;28;45300;-78
2022/01/14 08:34:48;;;;;;;6.68;4.93;;;16.20;42.50;;;;;;5008131;28;48488;-78
2022/01/14 08:37:15;;;;;;;5.60;4.38;;;16.30;42.90;;;;;;5008173;28;45571;-78
2022/01/14 08:39:42;;;;;;;7.22;5.28;;;16.30;42.90;;;;;;5009456;28;45176;-80
2022/01/14 08:42:13;;;;;;;7.50;5.50;;;16.30;43.70;;;;;;5022975;28;45372;-79
2022/01/14 08:44:43;;;;;;;7.72;5.32;;;16.40;42.70;;;;;;5007062;28;47986;-80
2022/01/14 08:47:11;;;;;;;6.65;5.07;;;16.40;42.60;;;;;;5014966;28;45412;-80
2022/01/14 08:49:40;;;;;;;7.45;5.18;;;16.40;43.30;;;;;;5013569;28;45413;-79
2022/01/14 08:52:07;;;;;;;6.65;4.88;;;16.40;43.10;;;;;;5012587;28;45419;-79
2022/01/14 08:54:35;;;;;;;7.75;5.75;;;16.30;42.80;;;;;;5010726;28;45191;-78
2022/01/14 08:57:04;;;;;;;7.85;5.25;;;16.30;42.70;;;;;;5012745;28;45333;-81
2022/01/14 08:59:39;;;;;;;5.40;4.40;;;16.30;44.60;;;;;;5018062;28;45159;-80
2022/01/14 09:02:06;;;;;;;5.63;4.25;;;16.40;44.50;;;;;;5010857;28;45152;-79
2022/01/14 09:04:34;;;;;;;6.30;4.68;;;16.40;45.20;;;;;;5011749;28;45981;-80
2022/01/14 09:07:02;;;;;;;7.40;5.13;;;16.40;44.80;;;;;;5011330;28;45459;-80
2022/01/14 09:09:29;;;;;;;7.72;5.38;;;16.60;44.80;;;;;;5010941;28;45304;-79
2022/01/14 09:11:56;;;;;;;8.35;5.43;;;16.30;43.80;;;;;;5003922;28;45229;-79
2022/01/14 09:14:25;;;;;;;7.25;5.25;;;16.40;43.40;;;;;;5008816;28;48639;-79
2022/01/14 09:16:55;;;;;;;7.57;5.53;;;16.40;43.30;;;;;;5014328;28;46284;-80
2022/01/14 09:19:22;;;;;;;8.70;5.47;;;16.40;43.00;;;;;;5011620;28;45129;-79
2022/01/14 09:21:49;;;;;;;8.13;5.63;;;16.40;43.00;;;;;;5005992;28;46041;-79
2022/01/14 09:24:16;;;;;;;8.90;5.82;;;16.40;42.80;;;;;;4993477;28;47115;-78
2022/01/14 09:26:43;;;;;;;7.45;5.43;;;16.40;43.10;;;;;;5002779;28;45329;-78
2022/01/14 09:29:10;;;;;;;6.85;5.15;;;16.40;42.50;;;;;;5002130;28;46336;-78
2022/01/14 09:31:37;;;;;;;7.60;5.60;;;16.40;42.50;;;;;;4996974;28;45130;-78
2022/01/14 09:34:06;;;;;;;10.00;5.60;;;16.40;42.70;;;;;;5007660;28;45265;-78
2022/01/14 09:36:33;;;;;;;6.95;5.25;;;16.40;42.60;;;;;;5008117;28;45262;-78
2022/01/14 09:39:00;;;;;;;8.27;5.55;;;16.40;42.80;;;;;;5003566;28;45339;-78
2022/01/14 09:41:27;;;;;;;7.78;5.25;;;16.40;43.00;;;;;;5005708;28;46311;-78
2022/01/14 09:43:55;;;;;;;9.13;6.10;;;16.40;42.80;;;;;;5006838;28;46181;-78
2022/01/14 09:46:23;;;;;;;7.93;5.55;;;16.40;42.90;;;;;;5008588;28;45230;-78
2022/01/14 09:48:51;;;;;;;7.97;5.40;;;16.40;42.90;;;;;;5010140;28;45207;-79
2022/01/14 09:51:21;;;;;;;8.15;6.25;;;16.40;43.00;;;;;;5010595;28;45547;-79
2022/01/14 09:53:48;;;;;;;7.95;5.75;;;16.40;43.60;;;;;;5010531;28;47406;-79
2022/01/14 09:56:16;;;;;;;8.55;6.20;;;16.40;43.40;;;;;;5006493;28;45359;-79
2022/01/14 09:58:47;;;;;;;8.27;5.75;;;16.40;43.30;;;;;;5007364;28;45131;-79
2022/01/14 10:01:16;;;;;;;9.23;5.70;;;16.40;43.70;;;;;;5004468;28;45312;-80
2022/01/14 10:03:53;;;;;;;7.63;5.38;;;16.40;43.70;;;;;;5004820;28;45858;-80
2022/01/14 10:06:42;;;;;;;8.10;5.95;;;16.50;44.80;;;;;;5011991;28;45276;-80
2022/01/14 10:09:12;;;;;;;8.27;5.82;;;16.40;45.50;;;;;;5011873;28;45323;-80
2022/01/14 10:11:42;;;;;;;8.23;5.65;;;16.40;45.90;;;;;;5001232;28;45603;-79
2022/01/14 10:14:11;;;;;;;8.65;6.05;;;16.50;45.80;;;;;;5009650;28;47621;-79
2022/01/14 10:16:43;;;;;;;9.98;6.57;;;16.50;45.00;;;;;;5014564;28;45201;-78
2022/01/14 10:19:21;;;;;;;9.50;5.47;;;16.40;44.70;;;;;;5014491;28;45297;-78
2022/01/14 10:21:50;;;;;;;36.03;7.65;;;16.50;45.60;;;;;;5008440;28;45238;-76
2022/01/14 10:24:18;;;;;;;23.67;7.57;;;16.50;46.30;;;;;;5001055;28;48180;-77
2022/01/14 10:26:50;;;;;;;13.00;6.85;;;16.40;45.60;;;;;;5005340;28;45669;-77
2022/01/14 10:29:30;;;;;;;12.98;5.57;;;16.40;45.90;;;;;;5005116;28;45383;-77
2022/01/14 10:31:58;;;;;;;10.10;6.30;;;16.40;46.00;;;;;;5003906;28;45297;-77
2022/01/14 10:34:25;;;;;;;9.85;6.40;;;16.30;46.20;;;;;;5004927;28;45321;-77
2022/01/14 10:37:09;;;;;;;7.90;5.93;;;16.30;46.20;;;;;;5004850;28;45276;-77
2022/01/14 10:39:44;;;;;;;13.45;6.38;;;16.30;46.40;;;;;;5003105;28;45238;-77
2022/01/14 10:42:23;;;;;;;10.13;6.22;;;16.30;46.60;;;;;;5006293;28;45557;-77
2022/01/14 10:44:50;;;;;;;7.93;5.25;;;16.30;46.70;;;;;;5003086;28;47410;-78
2022/01/14 10:47:20;;;;;;;9.63;6.10;;;16.30;46.70;;;;;;4997206;28;45416;-79
2022/01/14 10:49:49;;;;;;;10.93;6.32;;;16.30;46.80;;;;;;5003499;28;45256;-78
2022/01/14 10:52:20;;;;;;;8.18;5.72;;;16.40;46.90;;;;;;5003318;28;45260;-78
2022/01/14 10:54:50;;;;;;;8.45;6.18;;;16.40;47.00;;;;;;5006027;28;46476;-78
2022/01/14 10:57:19;;;;;;;7.90;5.70;;;16.40;47.20;;;;;;5001691;28;45260;-78
2022/01/14 10:59:47;;;;;;;9.13;6.45;;;16.40;47.40;;;;;;5006035;28;45315;-79
2022/01/14 11:02:34;;;;;;;10.20;6.50;;;16.40;47.50;;;;;;5013833;28;45458;-78
2022/01/14 11:05:07;;;;;;;8.90;5.93;;;16.40;47.70;;;;;;5009770;28;47445;-78
2022/01/14 11:07:35;;;;;;;8.80;5.85;;;16.40;48.10;;;;;;5005533;28;45366;-78
2022/01/14 11:10:12;;;;;;;9.73;6.32;;;16.40;48.40;;;;;;5008775;28;45252;-78
2022/01/14 11:12:41;;;;;;;7.13;5.40;;;16.40;48.60;;;;;;5010856;28;45376;-78
2022/01/14 11:15:08;;;;;;;8.52;6.28;;;16.40;48.80;;;;;;5011642;28;46990;-79
2022/01/14 11:17:38;;;;;;;8.98;5.80;;;16.40;49.00;;;;;;5011558;28;45134;-79
2022/01/14 11:20:07;;;;;;;7.40;5.18;;;16.40;49.20;;;;;;5002598;28;45629;-79
2022/01/14 11:25:19;;;;;;;6.72;4.85;;;16.50;50.70;;;;;;5009821;28;45321;-79
2022/01/14 11:27:50;;;;;;;8.20;5.30;;;16.50;50.80;;;;;;5005521;28;45295;-78
2022/01/14 11:30:17;;;;;;;8.88;6.13;;;16.50;50.90;;;;;;5005062;28;45510;-78
2022/01/14 11:32:55;;;;;;;9.00;6.05;;;16.50;50.70;;;;;;5010707;28;45474;-78
2022/01/14 11:35:23;;;;;;;9.18;6.63;;;16.50;50.70;;;;;;5009680;28;48317;-78
2022/01/14 11:37:52;;;;;;;10.95;7.30;;;16.50;50.10;;;;;;5003086;28;46422;-78
2022/01/14 11:40:20;;;;;;;8.60;6.30;;;16.50;49.60;;;;;;5004729;28;45249;-79
2022/01/14 11:42:50;;;;;;;11.00;6.60;;;16.60;49.70;;;;;;5005552;28;45416;-78
2022/01/14 11:45:18;;;;;;;9.00;6.70;;;16.60;49.60;;;;;;4999936;28;47573;-78
2022/01/14 11:48:03;;;;;;;9.75;6.53;;;16.60;49.60;;;;;;5006027;28;45551;-78
2022/01/14 11:50:46;;;;;;;11.38;6.93;;;16.60;49.80;;;;;;5009231;28;45359;-78
2022/01/14 11:53:37;;;;;;;10.45;6.55;;;16.50;50.20;;;;;;5011218;28;45248;-80
2022/01/14 11:56:07;;;;;;;10.38;6.55;;;16.50;50.70;;;;;;5013073;28;45491;-78
2022/01/14 11:58:34;;;;;;;9.50;6.60;;;16.50;50.70;;;;;;5011953;28;45231;-79
2022/01/14 12:01:02;;;;;;;9.80;6.93;;;16.50;50.70;;;;;;5023819;28;45259;-81
2022/01/14 12:03:30;;;;;;;10.07;6.82;;;16.40;51.30;;;;;;5019629;28;45325;-81
2022/01/14 12:06:00;;;;;;;8.07;5.95;;;16.50;51.00;;;;;;5009977;28;45484;-81
2022/01/14 12:08:31;;;;;;;8.52;6.13;;;16.50;51.40;;;;;;4998580;28;45137;-82
2022/01/14 12:11:24;;;;;;;10.23;6.80;;;16.40;51.40;;;;;;5016652;28;45280;-84
2022/01/14 12:13:55;;;;;;;9.95;6.38;;;16.30;52.70;;;;;;5007158;28;45034;-79
2022/01/14 12:16:38;;;;;;;9.27;6.40;;;16.40;53.40;;;;;;5013872;28;48231;-79
2022/01/14 12:19:09;;;;;;;9.93;6.10;;;16.30;54.50;;;;;;5003554;28;45257;-79
2022/01/14 12:22:02;;;;;;;10.90;6.60;;;16.30;55.00;;;;;;4998512;28;45631;-78
2022/01/14 12:24:49;;;;;;;8.98;6.28;;;16.30;55.00;;;;;;5002786;28;45467;-78
2022/01/14 12:27:46;;;;;;;9.40;6.47;;;16.30;55.80;;;;;;4996281;28;45972;-78
2022/01/14 12:30:17;;;;;;;9.00;6.10;;;16.30;56.00;;;;;;5008924;28;45233;-78
2022/01/14 12:32:45;;;;;;;11.48;7.30;;;16.30;55.40;;;;;;5009925;28;45472;-78
2022/01/14 12:35:14;;;;;;;11.32;7.35;;;16.30;52.30;;;;;;5008923;28;45205;-78
2022/01/14 12:37:46;;;;;;;11.65;7.60;;;16.30;52.50;;;;;;5010116;28;45491;-79
2022/01/14 12:40:14;;;;;;;13.25;7.65;;;16.30;52.50;;;;;;5007965;28;45301;-78
2022/01/14 12:42:47;;;;;;;10.68;7.30;;;16.30;53.00;;;;;;5003937;28;45308;-79
2022/01/14 12:45:34;;;;;;;12.43;7.88;;;16.30;53.00;;;;;;5002859;28;45672;-79
2022/01/14 12:48:19;;;;;;;12.98;8.38;;;16.30;52.30;;;;;;5003954;28;48145;-80
2022/01/14 12:50:46;;;;;;;11.88;7.75;;;16.40;52.70;;;;;;5017400;28;45213;-80
2022/01/14 12:53:16;;;;;;;12.50;8.43;;;16.30;52.10;;;;;;5005067;28;45247;-80
2022/01/14 12:55:43;;;;;;;23.75;14.15;;;16.30;51.90;;;;;;5008972;28;45264;-78
2022/01/14 12:58:13;;;;;;;21.77;12.02;;;16.30;51.80;;;;;;5009812;28;47864;-80
2022/01/14 13:00:44;;;;;;;17.80;10.68;;;16.30;51.80;;;;;;5005487;28;45126;-80
2022/01/14 13:03:12;;;;;;;16.50;10.40;;;16.40;52.80;;;;;;5009725;28;45367;-78
2022/01/14 13:05:40;;;;;;;16.33;10.45;;;16.40;51.80;;;;;;4999904;28;45381;-80
2022/01/14 13:08:07;;;;;;;16.75;10.75;;;16.40;51.60;;;;;;5014258;28;46386;-82
2022/01/14 13:10:35;;;;;;;15.23;9.63;;;15.80;51.70;;;;;;5004244;28;46768;-79
2022/01/14 13:13:04;;;;;;;17.00;10.57;;;16.40;51.50;;;;;;5011159;28;45335;-80
2022/01/14 13:15:35;;;;;;;16.17;10.60;;;16.40;51.90;;;;;;5009172;28;45427;-79